sensor_id;sensor_type;location;lat;lon;timestamp;P1;durP1;ratioP1;P2;durP2;ratioP2
23338;SDS011;11841;49.368;20.962;2022-08-21T00:01:38;13.27;;;6.75;;
23338;SDS011;11841;49.368;20.962;2022-08-21T00:04:05;21.63;;;7.93;;
23338;SDS011;11841;49.368;20.962;2022-08-21T00:06:33;16.83;;;7.18;;
23338;SDS011;11841;49.368;20.962;2022-08-21T00:09:02;11.35;;;6.53;;
23338;SDS011;11841;49.368;20.962;2022-08-21T00:11:32;11.57;;;6.40;;
23338;SDS011;11841;49.368;20.962;2022-08-21T00:14:03;11.90;;;6.63;;
23338;SDS011;11841;49.368;20.962;2022-08-21T00:16:32;12.15;;;7.68;;
23338;SDS011;11841;49.368;20.962;2022-08-21T00:18:58;15.23;;;7.53;;
23338;SDS011;11841;49.368;20.962;2022-08-21T00:21:25;9.38;;;6.20;;
23338;SDS011;11841;49.368;20.962;2022-08-21T00:23:52;14.70;;;6.78;;
23338;SDS011;11841;49.368;20.962;2022-08-21T00:26:19;14.82;;;6.63;;
23338;SDS011;11841;49.368;20.962;2022-08-21T00:28:45;13.07;;;7.57;;
23338;SDS011;11841;49.368;20.962;2022-08-21T00:31:12;18.02;;;7.80;;
23338;SDS011;11841;49.368;20.962;2022-08-21T00:33:39;14.63;;;7.40;;
23338;SDS011;11841;49.368;20.962;2022-08-21T00:36:05;11.52;;;6.80;;
23338;SDS011;11841;49.368;20.962;2022-08-21T00:38:32;13.13;;;7.90;;
23338;SDS011;11841;49.368;20.962;2022-08-21T00:41:00;13.63;;;7.38;;
23338;SDS011;11841;49.368;20.962;2022-08-21T00:43:51;10.10;;;7.13;;
23338;SDS011;11841;49.368;20.962;2022-08-21T00:46:18;20.20;;;6.97;;
23338;SDS011;11841;49.368;20.962;2022-08-21T00:48:44;12.02;;;7.38;;
23338;SDS011;11841;49.368;20.962;2022-08-21T00:51:22;14.77;;;7.82;;
23338;SDS011;11841;49.368;20.962;2022-08-21T00:53:53;13.60;;;7.25;;
23338;SDS011;11841;49.368;20.962;2022-08-21T00:56:24;12.18;;;7.30;;
23338;SDS011;11841;49.368;20.962;2022-08-21T00:58:52;15.77;;;7.50;;
23338;SDS011;11841;49.368;20.962;2022-08-21T01:01:20;13.75;;;7.15;;
23338;SDS011;11841;49.368;20.962;2022-08-21T01:03:47;13.10;;;7.85;;
23338;SDS011;11841;49.368;20.962;2022-08-21T01:06:15;16.98;;;6.82;;
23338;SDS011;11841;49.368;20.962;2022-08-21T01:08:42;17.98;;;7.45;;
23338;SDS011;11841;49.368;20.962;2022-08-21T01:11:13;15.57;;;7.30;;
23338;SDS011;11841;49.368;20.962;2022-08-21T01:13:43;11.85;;;7.80;;
23338;SDS011;11841;49.368;20.962;2022-08-21T01:16:13;12.57;;;7.65;;
23338;SDS011;11841;49.368;20.962;2022-08-21T01:18:43;16.25;;;7.75;;
23338;SDS011;11841;49.368;20.962;2022-08-21T01:23:43;11.85;;;7.43;;
23338;SDS011;11841;49.368;20.962;2022-08-21T01:26:13;12.05;;;7.18;;
23338;SDS011;11841;49.368;20.962;2022-08-21T01:31:12;11.27;;;7.18;;
23338;SDS011;11841;49.368;20.962;2022-08-21T01:33:42;17.25;;;8.70;;
23338;SDS011;11841;49.368;20.962;2022-08-21T01:36:08;18.05;;;8.65;;
23338;SDS011;11841;49.368;20.962;2022-08-21T01:38:35;23.00;;;8.63;;
23338;SDS011;11841;49.368;20.962;2022-08-21T01:41:02;15.43;;;7.57;;
23338;SDS011;11841;49.368;20.962;2022-08-21T01:43:28;11.98;;;7.38;;
23338;SDS011;11841;49.368;20.962;2022-08-21T01:46:04;14.43;;;7.90;;
23338;SDS011;11841;49.368;20.962;2022-08-21T01:48:31;15.35;;;7.80;;
23338;SDS011;11841;49.368;20.962;2022-08-21T01:50:58;13.57;;;7.22;;
23338;SDS011;11841;49.368;20.962;2022-08-21T01:53:25;13.43;;;7.90;;
23338;SDS011;11841;49.368;20.962;2022-08-21T01:55:58;18.13;;;8.52;;
23338;SDS011;11841;49.368;20.962;2022-08-21T01:58:25;14.20;;;7.75;;
23338;SDS011;11841;49.368;20.962;2022-08-21T02:00:52;11.48;;;7.80;;
23338;SDS011;11841;49.368;20.962;2022-08-21T02:03:19;17.02;;;7.70;;
23338;SDS011;11841;49.368;20.962;2022-08-21T02:06:01;18.48;;;8.38;;
23338;SDS011;11841;49.368;20.962;2022-08-21T02:08:28;11.13;;;7.53;;
23338;SDS011;11841;49.368;20.962;2022-08-21T02:10:55;9.20;;;6.45;;
23338;SDS011;11841;49.368;20.962;2022-08-21T02:13:21;12.65;;;7.22;;
23338;SDS011;11841;49.368;20.962;2022-08-21T02:15:48;14.00;;;7.57;;
23338;SDS011;11841;49.368;20.962;2022-08-21T02:18:14;10.93;;;7.05;;
23338;SDS011;11841;49.368;20.962;2022-08-21T02:20:44;13.85;;;7.72;;
23338;SDS011;11841;49.368;20.962;2022-08-21T02:23:13;14.77;;;7.85;;
23338;SDS011;11841;49.368;20.962;2022-08-21T02:25:41;14.38;;;7.85;;
23338;SDS011;11841;49.368;20.962;2022-08-21T02:28:11;13.63;;;7.75;;
23338;SDS011;11841;49.368;20.962;2022-08-21T02:30:44;14.90;;;7.72;;
23338;SDS011;11841;49.368;20.962;2022-08-21T02:33:13;13.60;;;7.60;;
23338;SDS011;11841;49.368;20.962;2022-08-21T02:35:42;11.57;;;7.65;;
23338;SDS011;11841;49.368;20.962;2022-08-21T02:38:11;13.85;;;7.72;;
23338;SDS011;11841;49.368;20.962;2022-08-21T02:40:40;13.90;;;7.43;;
23338;SDS011;11841;49.368;20.962;2022-08-21T02:43:13;22.38;;;8.50;;
23338;SDS011;11841;49.368;20.962;2022-08-21T02:45:41;17.23;;;8.05;;
23338;SDS011;11841;49.368;20.962;2022-08-21T02:48:10;16.90;;;8.48;;
23338;SDS011;11841;49.368;20.962;2022-08-21T02:50:44;15.82;;;7.68;;
23338;SDS011;11841;49.368;20.962;2022-08-21T02:53:17;14.30;;;8.30;;
23338;SDS011;11841;49.368;20.962;2022-08-21T02:55:45;18.17;;;7.65;;
23338;SDS011;11841;49.368;20.962;2022-08-21T02:58:14;15.43;;;8.43;;
23338;SDS011;11841;49.368;20.962;2022-08-21T03:00:43;13.55;;;7.30;;
23338;SDS011;11841;49.368;20.962;2022-08-21T03:03:10;17.10;;;7.30;;
23338;SDS011;11841;49.368;20.962;2022-08-21T03:05:36;13.82;;;7.72;;
23338;SDS011;11841;49.368;20.962;2022-08-21T03:08:06;14.27;;;6.95;;
23338;SDS011;11841;49.368;20.962;2022-08-21T03:10:37;11.35;;;7.05;;
23338;SDS011;11841;49.368;20.962;2022-08-21T03:13:06;16.08;;;7.47;;
23338;SDS011;11841;49.368;20.962;2022-08-21T03:15:33;11.82;;;6.60;;
23338;SDS011;11841;49.368;20.962;2022-08-21T03:18:00;11.02;;;7.22;;
23338;SDS011;11841;49.368;20.962;2022-08-21T03:20:27;15.63;;;8.45;;
23338;SDS011;11841;49.368;20.962;2022-08-21T03:22:55;13.40;;;7.13;;
23338;SDS011;11841;49.368;20.962;2022-08-21T03:25:22;9.48;;;6.60;;
23338;SDS011;11841;49.368;20.962;2022-08-21T03:28:06;15.10;;;7.00;;
23338;SDS011;11841;49.368;20.962;2022-08-21T03:30:38;16.48;;;7.57;;
23338;SDS011;11841;49.368;20.962;2022-08-21T03:33:13;15.55;;;7.20;;
23338;SDS011;11841;49.368;20.962;2022-08-21T03:35:44;16.30;;;7.85;;
23338;SDS011;11841;49.368;20.962;2022-08-21T03:38:15;11.93;;;7.72;;
23338;SDS011;11841;49.368;20.962;2022-08-21T03:40:42;13.75;;;7.75;;
23338;SDS011;11841;49.368;20.962;2022-08-21T03:43:09;19.23;;;8.30;;
23338;SDS011;11841;49.368;20.962;2022-08-21T03:45:36;13.30;;;7.80;;
23338;SDS011;11841;49.368;20.962;2022-08-21T03:48:04;14.15;;;8.90;;
23338;SDS011;11841;49.368;20.962;2022-08-21T03:50:34;14.32;;;7.28;;
23338;SDS011;11841;49.368;20.962;2022-08-21T03:53:07;16.55;;;8.75;;
23338;SDS011;11841;49.368;20.962;2022-08-21T03:55:46;13.82;;;7.68;;
23338;SDS011;11841;49.368;20.962;2022-08-21T03:58:15;16.65;;;7.88;;
23338;SDS011;11841;49.368;20.962;2022-08-21T04:00:46;14.73;;;7.65;;
23338;SDS011;11841;49.368;20.962;2022-08-21T04:03:15;16.08;;;8.13;;
23338;SDS011;11841;49.368;20.962;2022-08-21T04:05:42;17.88;;;10.25;;
23338;SDS011;11841;49.368;20.962;2022-08-21T04:08:11;13.07;;;8.65;;
23338;SDS011;11841;49.368;20.962;2022-08-21T04:10:38;13.65;;;7.65;;
23338;SDS011;11841;49.368;20.962;2022-08-21T04:13:06;11.95;;;7.40;;
23338;SDS011;11841;49.368;20.962;2022-08-21T04:15:33;15.73;;;8.40;;
23338;SDS011;11841;49.368;20.962;2022-08-21T04:18:02;15.50;;;8.32;;
23338;SDS011;11841;49.368;20.962;2022-08-21T04:20:29;12.02;;;7.35;;
23338;SDS011;11841;49.368;20.962;2022-08-21T04:22:56;12.85;;;7.90;;
23338;SDS011;11841;49.368;20.962;2022-08-21T04:25:23;16.20;;;7.80;;
23338;SDS011;11841;49.368;20.962;2022-08-21T04:27:51;13.32;;;8.60;;
23338;SDS011;11841;49.368;20.962;2022-08-21T04:30:19;16.25;;;8.88;;
23338;SDS011;11841;49.368;20.962;2022-08-21T04:32:46;16.45;;;8.43;;
23338;SDS011;11841;49.368;20.962;2022-08-21T04:35:16;19.50;;;8.65;;
23338;SDS011;11841;49.368;20.962;2022-08-21T04:37:44;20.55;;;8.82;;
23338;SDS011;11841;49.368;20.962;2022-08-21T04:40:12;17.58;;;8.27;;
23338;SDS011;11841;49.368;20.962;2022-08-21T04:45:35;14.35;;;8.88;;
23338;SDS011;11841;49.368;20.962;2022-08-21T04:48:05;13.35;;;8.43;;
23338;SDS011;11841;49.368;20.962;2022-08-21T04:50:41;15.90;;;10.20;;
23338;SDS011;11841;49.368;20.962;2022-08-21T04:53:16;14.38;;;9.35;;
23338;SDS011;11841;49.368;20.962;2022-08-21T04:55:45;12.10;;;9.32;;
23338;SDS011;11841;49.368;20.962;2022-08-21T04:58:14;13.00;;;9.32;;
23338;SDS011;11841;49.368;20.962;2022-08-21T05:00:43;19.88;;;10.25;;
23338;SDS011;11841;49.368;20.962;2022-08-21T05:03:12;19.27;;;10.32;;
23338;SDS011;11841;49.368;20.962;2022-08-21T05:05:42;14.63;;;9.57;;
23338;SDS011;11841;49.368;20.962;2022-08-21T05:08:11;14.85;;;9.55;;
23338;SDS011;11841;49.368;20.962;2022-08-21T05:10:40;18.30;;;10.90;;
23338;SDS011;11841;49.368;20.962;2022-08-21T05:13:08;17.90;;;11.00;;
23338;SDS011;11841;49.368;20.962;2022-08-21T05:15:36;19.20;;;10.98;;
23338;SDS011;11841;49.368;20.962;2022-08-21T05:18:03;18.58;;;11.35;;
23338;SDS011;11841;49.368;20.962;2022-08-21T05:20:30;13.57;;;9.43;;
23338;SDS011;11841;49.368;20.962;2022-08-21T05:22:56;19.92;;;11.00;;
23338;SDS011;11841;49.368;20.962;2022-08-21T05:25:24;15.65;;;10.15;;
23338;SDS011;11841;49.368;20.962;2022-08-21T05:27:53;15.52;;;10.50;;
23338;SDS011;11841;49.368;20.962;2022-08-21T05:30:20;19.80;;;10.52;;
23338;SDS011;11841;49.368;20.962;2022-08-21T05:32:46;18.40;;;10.60;;
23338;SDS011;11841;49.368;20.962;2022-08-21T05:35:14;19.60;;;10.98;;
23338;SDS011;11841;49.368;20.962;2022-08-21T05:37:41;22.30;;;11.38;;
23338;SDS011;11841;49.368;20.962;2022-08-21T05:40:07;17.33;;;10.95;;
23338;SDS011;11841;49.368;20.962;2022-08-21T05:42:48;19.33;;;10.27;;
23338;SDS011;11841;49.368;20.962;2022-08-21T05:45:20;19.48;;;11.27;;
23338;SDS011;11841;49.368;20.962;2022-08-21T05:48:10;14.93;;;9.18;;
23338;SDS011;11841;49.368;20.962;2022-08-21T05:50:37;16.95;;;11.43;;
23338;SDS011;11841;49.368;20.962;2022-08-21T05:53:05;22.83;;;10.83;;
23338;SDS011;11841;49.368;20.962;2022-08-21T05:55:33;18.60;;;10.30;;
23338;SDS011;11841;49.368;20.962;2022-08-21T05:57:59;17.55;;;10.45;;
23338;SDS011;11841;49.368;20.962;2022-08-21T06:00:26;19.58;;;9.90;;
23338;SDS011;11841;49.368;20.962;2022-08-21T06:02:53;16.75;;;10.02;;
23338;SDS011;11841;49.368;20.962;2022-08-21T06:05:20;13.65;;;10.52;;
23338;SDS011;11841;49.368;20.962;2022-08-21T06:08:03;15.45;;;10.95;;
23338;SDS011;11841;49.368;20.962;2022-08-21T06:10:30;19.48;;;10.40;;
23338;SDS011;11841;49.368;20.962;2022-08-21T06:12:57;25.05;;;11.07;;
23338;SDS011;11841;49.368;20.962;2022-08-21T06:15:24;19.65;;;12.18;;
23338;SDS011;11841;49.368;20.962;2022-08-21T06:17:51;17.23;;;11.57;;
23338;SDS011;11841;49.368;20.962;2022-08-21T06:20:19;23.23;;;11.98;;
23338;SDS011;11841;49.368;20.962;2022-08-21T06:22:46;22.35;;;11.63;;
23338;SDS011;11841;49.368;20.962;2022-08-21T06:25:13;25.45;;;10.88;;
23338;SDS011;11841;49.368;20.962;2022-08-21T06:27:39;22.67;;;11.52;;
23338;SDS011;11841;49.368;20.962;2022-08-21T06:30:06;18.70;;;10.93;;
23338;SDS011;11841;49.368;20.962;2022-08-21T06:32:34;19.83;;;10.50;;
23338;SDS011;11841;49.368;20.962;2022-08-21T06:35:00;21.33;;;12.35;;
23338;SDS011;11841;49.368;20.962;2022-08-21T06:37:27;25.15;;;13.30;;
23338;SDS011;11841;49.368;20.962;2022-08-21T06:39:54;22.23;;;13.38;;
23338;SDS011;11841;49.368;20.962;2022-08-21T06:42:20;23.60;;;12.85;;
23338;SDS011;11841;49.368;20.962;2022-08-21T06:44:53;22.98;;;12.02;;
23338;SDS011;11841;49.368;20.962;2022-08-21T06:47:19;25.77;;;13.27;;
23338;SDS011;11841;49.368;20.962;2022-08-21T06:49:46;26.23;;;15.93;;
23338;SDS011;11841;49.368;20.962;2022-08-21T06:52:13;27.48;;;15.02;;
23338;SDS011;11841;49.368;20.962;2022-08-21T06:54:40;32.55;;;15.05;;
23338;SDS011;11841;49.368;20.962;2022-08-21T06:57:07;26.35;;;14.77;;
23338;SDS011;11841;49.368;20.962;2022-08-21T06:59:34;27.88;;;15.85;;
23338;SDS011;11841;49.368;20.962;2022-08-21T07:02:01;25.63;;;14.70;;
23338;SDS011;11841;49.368;20.962;2022-08-21T07:04:27;28.35;;;14.32;;
23338;SDS011;11841;49.368;20.962;2022-08-21T07:06:54;26.95;;;15.00;;
23338;SDS011;11841;49.368;20.962;2022-08-21T07:09:21;27.27;;;14.60;;
23338;SDS011;11841;49.368;20.962;2022-08-21T07:11:51;31.40;;;14.95;;
23338;SDS011;11841;49.368;20.962;2022-08-21T07:14:19;24.50;;;14.07;;
23338;SDS011;11841;49.368;20.962;2022-08-21T07:16:47;29.17;;;14.82;;
23338;SDS011;11841;49.368;20.962;2022-08-21T07:19:14;26.50;;;14.45;;
23338;SDS011;11841;49.368;20.962;2022-08-21T07:21:41;26.58;;;14.05;;
23338;SDS011;11841;49.368;20.962;2022-08-21T07:24:07;25.38;;;13.35;;
23338;SDS011;11841;49.368;20.962;2022-08-21T07:26:35;22.92;;;14.07;;
23338;SDS011;11841;49.368;20.962;2022-08-21T07:29:01;25.85;;;14.75;;
23338;SDS011;11841;49.368;20.962;2022-08-21T07:31:28;26.17;;;14.95;;
23338;SDS011;11841;49.368;20.962;2022-08-21T07:33:55;28.95;;;15.20;;
23338;SDS011;11841;49.368;20.962;2022-08-21T07:36:22;24.55;;;15.45;;
23338;SDS011;11841;49.368;20.962;2022-08-21T07:38:48;34.25;;;15.77;;
23338;SDS011;11841;49.368;20.962;2022-08-21T07:41:19;30.30;;;14.02;;
23338;SDS011;11841;49.368;20.962;2022-08-21T07:43:48;26.85;;;14.45;;
23338;SDS011;11841;49.368;20.962;2022-08-21T07:46:18;28.63;;;14.77;;
23338;SDS011;11841;49.368;20.962;2022-08-21T07:48:45;23.23;;;13.38;;
23338;SDS011;11841;49.368;20.962;2022-08-21T07:51:13;24.92;;;15.38;;
23338;SDS011;11841;49.368;20.962;2022-08-21T07:56:08;28.20;;;14.70;;
23338;SDS011;11841;49.368;20.962;2022-08-21T07:58:37;30.35;;;14.93;;
23338;SDS011;11841;49.368;20.962;2022-08-21T08:01:04;23.15;;;15.40;;
23338;SDS011;11841;49.368;20.962;2022-08-21T08:03:32;21.80;;;13.77;;
23338;SDS011;11841;49.368;20.962;2022-08-21T08:05:59;19.10;;;13.48;;
23338;SDS011;11841;49.368;20.962;2022-08-21T08:08:27;23.70;;;14.52;;
23338;SDS011;11841;49.368;20.962;2022-08-21T08:10:53;24.13;;;14.93;;
23338;SDS011;11841;49.368;20.962;2022-08-21T08:13:23;24.55;;;14.43;;
23338;SDS011;11841;49.368;20.962;2022-08-21T08:15:50;24.75;;;14.10;;
23338;SDS011;11841;49.368;20.962;2022-08-21T08:18:17;33.25;;;15.20;;
23338;SDS011;11841;49.368;20.962;2022-08-21T08:20:44;27.55;;;14.32;;
23338;SDS011;11841;49.368;20.962;2022-08-21T08:23:11;27.58;;;14.65;;
23338;SDS011;11841;49.368;20.962;2022-08-21T08:25:39;24.70;;;14.90;;
23338;SDS011;11841;49.368;20.962;2022-08-21T08:28:05;19.85;;;13.65;;
23338;SDS011;11841;49.368;20.962;2022-08-21T08:30:43;25.17;;;14.65;;
23338;SDS011;11841;49.368;20.962;2022-08-21T08:33:10;26.52;;;14.82;;
23338;SDS011;11841;49.368;20.962;2022-08-21T08:35:37;25.70;;;14.05;;
23338;SDS011;11841;49.368;20.962;2022-08-21T08:38:04;29.15;;;14.45;;
23338;SDS011;11841;49.368;20.962;2022-08-21T08:43:18;28.20;;;14.15;;
23338;SDS011;11841;49.368;20.962;2022-08-21T08:45:46;29.52;;;15.30;;
23338;SDS011;11841;49.368;20.962;2022-08-21T08:51:21;24.60;;;13.80;;
23338;SDS011;11841;49.368;20.962;2022-08-21T08:54:14;28.40;;;15.50;;
23338;SDS011;11841;49.368;20.962;2022-08-21T08:56:44;25.48;;;14.23;;
23338;SDS011;11841;49.368;20.962;2022-08-21T08:59:13;22.30;;;13.77;;
23338;SDS011;11841;49.368;20.962;2022-08-21T09:01:44;30.25;;;14.80;;
23338;SDS011;11841;49.368;20.962;2022-08-21T09:04:11;20.42;;;12.73;;
23338;SDS011;11841;49.368;20.962;2022-08-21T09:15:06;26.48;;;12.55;;
23338;SDS011;11841;49.368;20.962;2022-08-21T09:20:37;21.30;;;12.38;;
23338;SDS011;11841;49.368;20.962;2022-08-21T09:23:20;23.25;;;13.13;;
23338;SDS011;11841;49.368;20.962;2022-08-21T09:28:35;27.08;;;13.60;;
23338;SDS011;11841;49.368;20.962;2022-08-21T09:31:06;31.33;;;13.07;;
23338;SDS011;11841;49.368;20.962;2022-08-21T09:33:37;26.52;;;13.18;;
23338;SDS011;11841;49.368;20.962;2022-08-21T09:36:04;26.25;;;13.20;;
23338;SDS011;11841;49.368;20.962;2022-08-21T09:38:32;18.65;;;12.38;;
23338;SDS011;11841;49.368;20.962;2022-08-21T09:41:06;25.02;;;13.70;;
23338;SDS011;11841;49.368;20.962;2022-08-21T09:43:35;28.58;;;13.60;;
23338;SDS011;11841;49.368;20.962;2022-08-21T09:46:10;26.20;;;12.50;;
23338;SDS011;11841;49.368;20.962;2022-08-21T09:48:43;24.55;;;13.23;;
23338;SDS011;11841;49.368;20.962;2022-08-21T09:51:14;26.05;;;13.70;;
23338;SDS011;11841;49.368;20.962;2022-08-21T09:53:45;21.83;;;13.48;;
23338;SDS011;11841;49.368;20.962;2022-08-21T09:56:24;21.65;;;13.77;;
23338;SDS011;11841;49.368;20.962;2022-08-21T09:59:17;21.40;;;13.63;;
23338;SDS011;11841;49.368;20.962;2022-08-21T10:01:50;19.67;;;12.02;;
23338;SDS011;11841;49.368;20.962;2022-08-21T10:04:21;23.70;;;12.07;;
23338;SDS011;11841;49.368;20.962;2022-08-21T10:06:49;22.70;;;13.70;;
23338;SDS011;11841;49.368;20.962;2022-08-21T10:09:17;21.48;;;13.35;;
23338;SDS011;11841;49.368;20.962;2022-08-21T10:11:49;26.38;;;13.18;;
23338;SDS011;11841;49.368;20.962;2022-08-21T10:20:07;28.73;;;13.52;;
23338;SDS011;11841;49.368;20.962;2022-08-21T10:22:44;22.88;;;12.30;;
23338;SDS011;11841;49.368;20.962;2022-08-21T10:25:23;24.27;;;13.23;;
23338;SDS011;11841;49.368;20.962;2022-08-21T10:28:17;28.38;;;13.57;;
23338;SDS011;11841;49.368;20.962;2022-08-21T10:31:16;25.52;;;15.07;;
23338;SDS011;11841;49.368;20.962;2022-08-21T10:48:35;33.63;;;17.05;;
23338;SDS011;11841;49.368;20.962;2022-08-21T10:57:18;28.55;;;15.07;;
23338;SDS011;11841;49.368;20.962;2022-08-21T11:00:04;28.05;;;16.38;;
23338;SDS011;11841;49.368;20.962;2022-08-21T11:05:12;30.02;;;16.70;;
23338;SDS011;11841;49.368;20.962;2022-08-21T11:07:45;27.13;;;17.48;;
23338;SDS011;11841;49.368;20.962;2022-08-21T11:10:21;31.67;;;15.93;;
23338;SDS011;11841;49.368;20.962;2022-08-21T11:12:53;34.08;;;19.02;;
23338;SDS011;11841;49.368;20.962;2022-08-21T11:15:30;36.33;;;17.58;;
23338;SDS011;11841;49.368;20.962;2022-08-21T11:20:51;24.88;;;17.00;;
23338;SDS011;11841;49.368;20.962;2022-08-21T11:23:38;31.60;;;18.47;;
23338;SDS011;11841;49.368;20.962;2022-08-21T11:26:35;30.23;;;17.73;;
23338;SDS011;11841;49.368;20.962;2022-08-21T11:29:07;32.88;;;18.10;;
23338;SDS011;11841;49.368;20.962;2022-08-21T11:42:38;33.28;;;17.92;;
23338;SDS011;11841;49.368;20.962;2022-08-21T11:45:36;27.80;;;16.17;;
23338;SDS011;11841;49.368;20.962;2022-08-21T11:50:49;28.13;;;16.63;;
23338;SDS011;11841;49.368;20.962;2022-08-21T11:55:53;24.05;;;15.32;;
23338;SDS011;11841;49.368;20.962;2022-08-21T11:58:42;31.33;;;17.15;;
23338;SDS011;11841;49.368;20.962;2022-08-21T12:01:15;28.33;;;16.50;;
23338;SDS011;11841;49.368;20.962;2022-08-21T12:03:53;35.20;;;17.58;;
23338;SDS011;11841;49.368;20.962;2022-08-21T12:06:30;31.05;;;17.33;;
23338;SDS011;11841;49.368;20.962;2022-08-21T12:09:00;51.10;;;18.95;;
23338;SDS011;11841;49.368;20.962;2022-08-21T12:11:45;30.40;;;17.85;;
23338;SDS011;11841;49.368;20.962;2022-08-21T12:14:18;24.05;;;14.55;;
23338;SDS011;11841;49.368;20.962;2022-08-21T12:16:46;31.63;;;17.70;;
23338;SDS011;11841;49.368;20.962;2022-08-21T12:27:00;34.42;;;16.08;;
23338;SDS011;11841;49.368;20.962;2022-08-21T12:29:43;33.42;;;17.00;;
23338;SDS011;11841;49.368;20.962;2022-08-21T12:37:15;26.10;;;15.07;;
23338;SDS011;11841;49.368;20.962;2022-08-21T12:39:49;25.17;;;13.27;;
23338;SDS011;11841;49.368;20.962;2022-08-21T12:42:20;31.70;;;14.88;;
23338;SDS011;11841;49.368;20.962;2022-08-21T12:44:50;23.60;;;13.98;;
23338;SDS011;11841;49.368;20.962;2022-08-21T12:47:27;21.92;;;13.80;;
23338;SDS011;11841;49.368;20.962;2022-08-21T12:50:09;24.50;;;14.73;;
23338;SDS011;11841;49.368;20.962;2022-08-21T12:52:40;23.77;;;14.13;;
23338;SDS011;11841;49.368;20.962;2022-08-21T12:55:29;27.67;;;13.70;;
23338;SDS011;11841;49.368;20.962;2022-08-21T12:57:58;23.92;;;14.60;;
23338;SDS011;11841;49.368;20.962;2022-08-21T13:00:26;23.08;;;14.23;;
23338;SDS011;11841;49.368;20.962;2022-08-21T13:02:55;25.73;;;14.05;;
23338;SDS011;11841;49.368;20.962;2022-08-21T13:05:27;21.30;;;13.98;;
23338;SDS011;11841;49.368;20.962;2022-08-21T13:07:59;27.98;;;14.90;;
23338;SDS011;11841;49.368;20.962;2022-08-21T13:10:31;35.80;;;15.35;;
23338;SDS011;11841;49.368;20.962;2022-08-21T13:13:04;18.63;;;13.40;;
23338;SDS011;11841;49.368;20.962;2022-08-21T13:15:38;22.40;;;14.57;;
23338;SDS011;11841;49.368;20.962;2022-08-21T13:18:23;23.02;;;14.55;;
23338;SDS011;11841;49.368;20.962;2022-08-21T13:21:06;22.45;;;13.95;;
23338;SDS011;11841;49.368;20.962;2022-08-21T13:23:37;28.77;;;13.77;;
23338;SDS011;11841;49.368;20.962;2022-08-21T13:26:13;26.80;;;14.27;;
23338;SDS011;11841;49.368;20.962;2022-08-21T13:28:45;21.42;;;14.02;;
23338;SDS011;11841;49.368;20.962;2022-08-21T13:31:17;20.02;;;13.57;;
23338;SDS011;11841;49.368;20.962;2022-08-21T13:33:48;24.55;;;14.05;;
23338;SDS011;11841;49.368;20.962;2022-08-21T13:36:18;27.45;;;13.15;;
23338;SDS011;11841;49.368;20.962;2022-08-21T13:38:50;25.35;;;14.98;;
23338;SDS011;11841;49.368;20.962;2022-08-21T13:41:21;21.60;;;13.65;;
23338;SDS011;11841;49.368;20.962;2022-08-21T13:44:02;20.73;;;13.35;;
23338;SDS011;11841;49.368;20.962;2022-08-21T13:46:46;20.13;;;13.18;;
23338;SDS011;11841;49.368;20.962;2022-08-21T13:49:15;23.15;;;12.98;;
23338;SDS011;11841;49.368;20.962;2022-08-21T13:51:44;24.15;;;13.18;;
23338;SDS011;11841;49.368;20.962;2022-08-21T13:54:14;21.58;;;13.20;;
23338;SDS011;11841;49.368;20.962;2022-08-21T13:56:46;19.08;;;13.55;;
23338;SDS011;11841;49.368;20.962;2022-08-21T13:59:23;22.13;;;14.63;;
23338;SDS011;11841;49.368;20.962;2022-08-21T14:01:53;23.48;;;14.60;;
23338;SDS011;11841;49.368;20.962;2022-08-21T14:04:35;26.35;;;13.63;;
23338;SDS011;11841;49.368;20.962;2022-08-21T14:07:27;20.80;;;13.73;;
23338;SDS011;11841;49.368;20.962;2022-08-21T14:10:05;21.38;;;12.93;;
23338;SDS011;11841;49.368;20.962;2022-08-21T14:12:38;20.80;;;12.77;;
23338;SDS011;11841;49.368;20.962;2022-08-21T14:15:09;22.30;;;14.50;;
23338;SDS011;11841;49.368;20.962;2022-08-21T14:17:40;22.45;;;14.15;;
23338;SDS011;11841;49.368;20.962;2022-08-21T14:20:09;28.70;;;12.90;;
23338;SDS011;11841;49.368;20.962;2022-08-21T14:27:39;22.92;;;12.82;;
23338;SDS011;11841;49.368;20.962;2022-08-21T14:30:19;22.33;;;13.00;;
23338;SDS011;11841;49.368;20.962;2022-08-21T14:32:52;21.25;;;13.55;;
23338;SDS011;11841;49.368;20.962;2022-08-21T14:35:19;17.88;;;12.05;;
23338;SDS011;11841;49.368;20.962;2022-08-21T14:37:49;26.70;;;15.18;;
23338;SDS011;11841;49.368;20.962;2022-08-21T14:40:16;27.10;;;14.95;;
23338;SDS011;11841;49.368;20.962;2022-08-21T14:42:45;25.20;;;14.13;;
23338;SDS011;11841;49.368;20.962;2022-08-21T14:45:17;25.98;;;15.98;;
23338;SDS011;11841;49.368;20.962;2022-08-21T14:47:52;20.98;;;14.50;;
23338;SDS011;11841;49.368;20.962;2022-08-21T14:50:19;31.00;;;15.05;;
23338;SDS011;11841;49.368;20.962;2022-08-21T14:52:45;25.92;;;16.08;;
23338;SDS011;11841;49.368;20.962;2022-08-21T14:55:13;26.35;;;15.63;;
23338;SDS011;11841;49.368;20.962;2022-08-21T14:57:41;34.78;;;15.55;;
23338;SDS011;11841;49.368;20.962;2022-08-21T15:00:11;24.35;;;15.07;;
23338;SDS011;11841;49.368;20.962;2022-08-21T15:02:39;25.15;;;14.50;;
23338;SDS011;11841;49.368;20.962;2022-08-21T15:05:06;26.92;;;15.00;;
23338;SDS011;11841;49.368;20.962;2022-08-21T15:07:33;27.40;;;14.85;;
23338;SDS011;11841;49.368;20.962;2022-08-21T15:09:59;26.27;;;14.95;;
23338;SDS011;11841;49.368;20.962;2022-08-21T15:12:26;26.13;;;15.30;;
23338;SDS011;11841;49.368;20.962;2022-08-21T15:14:53;23.50;;;14.90;;
23338;SDS011;11841;49.368;20.962;2022-08-21T15:17:20;25.77;;;14.73;;
23338;SDS011;11841;49.368;20.962;2022-08-21T15:19:46;28.33;;;15.68;;
23338;SDS011;11841;49.368;20.962;2022-08-21T15:22:13;25.98;;;17.00;;
23338;SDS011;11841;49.368;20.962;2022-08-21T15:24:52;33.72;;;16.60;;
23338;SDS011;11841;49.368;20.962;2022-08-21T15:27:19;24.85;;;16.23;;
23338;SDS011;11841;49.368;20.962;2022-08-21T15:29:45;27.52;;;16.15;;
23338;SDS011;11841;49.368;20.962;2022-08-21T15:32:20;26.13;;;16.50;;
23338;SDS011;11841;49.368;20.962;2022-08-21T15:34:49;27.80;;;16.10;;
23338;SDS011;11841;49.368;20.962;2022-08-21T15:37:17;29.08;;;15.63;;
23338;SDS011;11841;49.368;20.962;2022-08-21T15:39:44;32.45;;;16.65;;
23338;SDS011;11841;49.368;20.962;2022-08-21T15:42:19;27.73;;;17.42;;
23338;SDS011;11841;49.368;20.962;2022-08-21T15:44:46;29.92;;;17.80;;
23338;SDS011;11841;49.368;20.962;2022-08-21T15:47:21;32.17;;;19.10;;
23338;SDS011;11841;49.368;20.962;2022-08-21T15:49:51;33.33;;;19.38;;
23338;SDS011;11841;49.368;20.962;2022-08-21T15:52:19;36.65;;;17.88;;
23338;SDS011;11841;49.368;20.962;2022-08-21T15:54:47;31.27;;;18.95;;
23338;SDS011;11841;49.368;20.962;2022-08-21T15:57:17;30.63;;;17.95;;
23338;SDS011;11841;49.368;20.962;2022-08-21T15:59:50;33.88;;;17.33;;
23338;SDS011;11841;49.368;20.962;2022-08-21T16:02:24;27.60;;;16.33;;
23338;SDS011;11841;49.368;20.962;2022-08-21T16:04:54;32.10;;;18.83;;
23338;SDS011;11841;49.368;20.962;2022-08-21T16:07:20;33.05;;;20.30;;
23338;SDS011;11841;49.368;20.962;2022-08-21T16:09:47;35.78;;;20.15;;